sensor_id;sensor_type;location;lat;lon;timestamp;P1;durP1;ratioP1;P2;durP2;ratioP2
27925;SDS011;15267;47.838;12.128;2023-06-14T00:01:20;7.13;;;4.18;;
27925;SDS011;15267;47.838;12.128;2023-06-14T00:03:47;6.38;;;4.35;;
27925;SDS011;15267;47.838;12.128;2023-06-14T00:06:13;13.82;;;4.60;;
27925;SDS011;15267;47.838;12.128;2023-06-14T00:08:39;7.55;;;4.40;;
27925;SDS011;15267;47.838;12.128;2023-06-14T00:11:05;6.13;;;4.35;;
27925;SDS011;15267;47.838;12.128;2023-06-14T00:13:31;5.03;;;3.92;;
27925;SDS011;15267;47.838;12.128;2023-06-14T00:15:58;6.93;;;4.90;;
27925;SDS011;15267;47.838;12.128;2023-06-14T00:18:24;6.05;;;4.03;;
27925;SDS011;15267;47.838;12.128;2023-06-14T00:20:51;5.15;;;4.38;;
27925;SDS011;15267;47.838;12.128;2023-06-14T00:23:17;5.65;;;4.43;;
27925;SDS011;15267;47.838;12.128;2023-06-14T00:25:43;8.25;;;4.53;;
27925;SDS011;15267;47.838;12.128;2023-06-14T00:28:09;8.13;;;4.53;;
27925;SDS011;15267;47.838;12.128;2023-06-14T00:30:35;5.40;;;3.83;;
27925;SDS011;15267;47.838;12.128;2023-06-14T00:33:01;6.07;;;3.90;;
27925;SDS011;15267;47.838;12.128;2023-06-14T00:35:27;7.00;;;4.00;;
27925;SDS011;15267;47.838;12.128;2023-06-14T00:37:53;7.97;;;3.90;;
27925;SDS011;15267;47.838;12.128;2023-06-14T00:40:20;8.23;;;4.20;;
27925;SDS011;15267;47.838;12.128;2023-06-14T00:42:46;6.07;;;4.07;;
27925;SDS011;15267;47.838;12.128;2023-06-14T00:45:12;9.50;;;4.40;;
27925;SDS011;15267;47.838;12.128;2023-06-14T00:47:38;5.90;;;4.35;;
27925;SDS011;15267;47.838;12.128;2023-06-14T00:50:06;6.57;;;4.68;;
27925;SDS011;15267;47.838;12.128;2023-06-14T00:52:33;7.80;;;4.53;;
27925;SDS011;15267;47.838;12.128;2023-06-14T00:54:59;8.60;;;4.70;;
27925;SDS011;15267;47.838;12.128;2023-06-14T00:57:25;8.88;;;4.78;;
27925;SDS011;15267;47.838;12.128;2023-06-14T00:59:52;5.03;;;3.95;;
27925;SDS011;15267;47.838;12.128;2023-06-14T01:02:18;6.80;;;4.43;;
27925;SDS011;15267;47.838;12.128;2023-06-14T01:04:45;8.48;;;4.80;;
27925;SDS011;15267;47.838;12.128;2023-06-14T01:15:02;7.68;;;4.30;;
27925;SDS011;15267;47.838;12.128;2023-06-14T01:17:29;6.25;;;4.63;;
27925;SDS011;15267;47.838;12.128;2023-06-14T01:19:57;6.75;;;4.75;;
27925;SDS011;15267;47.838;12.128;2023-06-14T01:22:27;5.20;;;4.43;;
27925;SDS011;15267;47.838;12.128;2023-06-14T01:24:53;7.30;;;4.70;;
27925;SDS011;15267;47.838;12.128;2023-06-14T01:27:23;7.93;;;4.72;;
27925;SDS011;15267;47.838;12.128;2023-06-14T01:29:53;7.80;;;4.82;;
27925;SDS011;15267;47.838;12.128;2023-06-14T01:32:21;8.27;;;4.78;;
27925;SDS011;15267;47.838;12.128;2023-06-14T01:34:47;8.98;;;4.70;;
27925;SDS011;15267;47.838;12.128;2023-06-14T01:37:13;7.75;;;4.72;;
27925;SDS011;15267;47.838;12.128;2023-06-14T01:39:39;10.18;;;5.25;;
27925;SDS011;15267;47.838;12.128;2023-06-14T01:42:05;7.47;;;4.97;;
27925;SDS011;15267;47.838;12.128;2023-06-14T01:44:32;7.82;;;5.28;;
27925;SDS011;15267;47.838;12.128;2023-06-14T01:46:58;7.05;;;4.82;;
27925;SDS011;15267;47.838;12.128;2023-06-14T01:49:24;5.70;;;4.75;;
27925;SDS011;15267;47.838;12.128;2023-06-14T01:51:51;5.53;;;4.55;;
27925;SDS011;15267;47.838;12.128;2023-06-14T01:54:17;8.18;;;5.05;;
27925;SDS011;15267;47.838;12.128;2023-06-14T01:56:43;7.95;;;4.13;;
27925;SDS011;15267;47.838;12.128;2023-06-14T01:59:09;6.60;;;4.55;;
27925;SDS011;15267;47.838;12.128;2023-06-14T02:01:35;6.38;;;4.75;;
27925;SDS011;15267;47.838;12.128;2023-06-14T02:04:01;5.20;;;4.32;;
27925;SDS011;15267;47.838;12.128;2023-06-14T02:06:27;9.77;;;4.63;;
27925;SDS011;15267;47.838;12.128;2023-06-14T02:08:53;8.00;;;4.53;;
27925;SDS011;15267;47.838;12.128;2023-06-14T02:11:19;6.15;;;4.40;;
27925;SDS011;15267;47.838;12.128;2023-06-14T02:13:45;6.88;;;4.95;;
27925;SDS011;15267;47.838;12.128;2023-06-14T02:16:11;5.65;;;4.50;;
27925;SDS011;15267;47.838;12.128;2023-06-14T02:18:37;6.75;;;4.70;;
27925;SDS011;15267;47.838;12.128;2023-06-14T02:21:03;7.50;;;4.60;;
27925;SDS011;15267;47.838;12.128;2023-06-14T02:23:29;6.88;;;4.30;;
27925;SDS011;15267;47.838;12.128;2023-06-14T02:25:57;5.47;;;4.50;;
27925;SDS011;15267;47.838;12.128;2023-06-14T02:28:22;5.75;;;4.30;;
27925;SDS011;15267;47.838;12.128;2023-06-14T02:30:49;5.90;;;4.80;;
27925;SDS011;15267;47.838;12.128;2023-06-14T02:33:15;5.38;;;4.32;;
27925;SDS011;15267;47.838;12.128;2023-06-14T02:35:42;4.55;;;3.88;;
27925;SDS011;15267;47.838;12.128;2023-06-14T02:38:08;7.97;;;4.80;;
27925;SDS011;15267;47.838;12.128;2023-06-14T02:40:34;6.07;;;4.88;;
27925;SDS011;15267;47.838;12.128;2023-06-14T02:43:00;6.88;;;4.50;;
27925;SDS011;15267;47.838;12.128;2023-06-14T02:45:26;6.10;;;4.80;;
27925;SDS011;15267;47.838;12.128;2023-06-14T02:47:52;6.38;;;5.03;;
27925;SDS011;15267;47.838;12.128;2023-06-14T02:50:20;7.70;;;4.65;;
27925;SDS011;15267;47.838;12.128;2023-06-14T02:52:46;5.85;;;4.50;;
27925;SDS011;15267;47.838;12.128;2023-06-14T02:55:12;7.00;;;4.80;;
27925;SDS011;15267;47.838;12.128;2023-06-14T02:57:38;6.60;;;5.15;;
27925;SDS011;15267;47.838;12.128;2023-06-14T03:00:04;7.50;;;5.07;;
27925;SDS011;15267;47.838;12.128;2023-06-14T03:02:33;7.72;;;4.78;;
27925;SDS011;15267;47.838;12.128;2023-06-14T03:04:59;7.63;;;4.53;;
27925;SDS011;15267;47.838;12.128;2023-06-14T03:07:26;6.78;;;4.88;;
27925;SDS011;15267;47.838;12.128;2023-06-14T03:09:52;8.00;;;5.13;;
27925;SDS011;15267;47.838;12.128;2023-06-14T03:12:18;6.88;;;4.95;;
27925;SDS011;15267;47.838;12.128;2023-06-14T03:14:45;7.38;;;4.57;;
27925;SDS011;15267;47.838;12.128;2023-06-14T03:17:11;5.63;;;4.80;;
27925;SDS011;15267;47.838;12.128;2023-06-14T03:19:38;8.45;;;4.50;;
27925;SDS011;15267;47.838;12.128;2023-06-14T03:22:06;6.60;;;4.80;;
27925;SDS011;15267;47.838;12.128;2023-06-14T03:24:32;5.75;;;4.60;;
27925;SDS011;15267;47.838;12.128;2023-06-14T03:27:01;5.93;;;4.63;;
27925;SDS011;15267;47.838;12.128;2023-06-14T03:29:27;8.90;;;4.60;;
27925;SDS011;15267;47.838;12.128;2023-06-14T03:31:57;5.88;;;4.53;;
27925;SDS011;15267;47.838;12.128;2023-06-14T03:34:23;8.45;;;4.70;;
27925;SDS011;15267;47.838;12.128;2023-06-14T03:36:49;6.07;;;4.68;;
27925;SDS011;15267;47.838;12.128;2023-06-14T03:39:15;5.95;;;5.18;;
27925;SDS011;15267;47.838;12.128;2023-06-14T03:41:41;6.57;;;5.18;;
27925;SDS011;15267;47.838;12.128;2023-06-14T03:44:07;6.15;;;4.70;;
27925;SDS011;15267;47.838;12.128;2023-06-14T03:46:33;5.80;;;4.32;;
27925;SDS011;15267;47.838;12.128;2023-06-14T03:48:59;6.00;;;4.82;;
27925;SDS011;15267;47.838;12.128;2023-06-14T03:51:25;7.18;;;5.05;;
27925;SDS011;15267;47.838;12.128;2023-06-14T03:53:51;5.75;;;4.45;;
27925;SDS011;15267;47.838;12.128;2023-06-14T03:56:17;7.03;;;4.97;;
27925;SDS011;15267;47.838;12.128;2023-06-14T03:58:43;6.10;;;4.80;;
27925;SDS011;15267;47.838;12.128;2023-06-14T04:01:09;7.65;;;4.50;;
27925;SDS011;15267;47.838;12.128;2023-06-14T04:03:37;4.85;;;4.35;;
27925;SDS011;15267;47.838;12.128;2023-06-14T04:06:03;7.03;;;4.55;;
27925;SDS011;15267;47.838;12.128;2023-06-14T04:08:30;6.85;;;4.70;;
27925;SDS011;15267;47.838;12.128;2023-06-14T04:10:56;6.50;;;4.95;;
27925;SDS011;15267;47.838;12.128;2023-06-14T04:13:22;6.80;;;4.70;;
27925;SDS011;15267;47.838;12.128;2023-06-14T04:15:48;5.82;;;4.90;;
27925;SDS011;15267;47.838;12.128;2023-06-14T04:18:14;8.60;;;4.70;;
27925;SDS011;15267;47.838;12.128;2023-06-14T04:20:40;5.95;;;4.32;;
27925;SDS011;15267;47.838;12.128;2023-06-14T04:23:13;9.82;;;4.88;;
27925;SDS011;15267;47.838;12.128;2023-06-14T04:25:39;10.70;;;4.80;;
27925;SDS011;15267;47.838;12.128;2023-06-14T04:28:05;8.02;;;4.80;;
27925;SDS011;15267;47.838;12.128;2023-06-14T04:30:34;5.75;;;4.53;;
27925;SDS011;15267;47.838;12.128;2023-06-14T04:33:01;6.60;;;4.70;;
27925;SDS011;15267;47.838;12.128;2023-06-14T04:35:30;8.57;;;4.80;;
27925;SDS011;15267;47.838;12.128;2023-06-14T04:37:57;7.55;;;4.85;;
27925;SDS011;15267;47.838;12.128;2023-06-14T04:40:23;9.23;;;4.80;;
27925;SDS011;15267;47.838;12.128;2023-06-14T04:42:49;7.70;;;4.60;;
27925;SDS011;15267;47.838;12.128;2023-06-14T04:45:15;6.57;;;4.88;;
27925;SDS011;15267;47.838;12.128;2023-06-14T04:47:42;5.93;;;4.40;;
27925;SDS011;15267;47.838;12.128;2023-06-14T04:50:09;5.93;;;4.38;;
27925;SDS011;15267;47.838;12.128;2023-06-14T04:52:38;5.97;;;4.70;;
27925;SDS011;15267;47.838;12.128;2023-06-14T04:55:04;7.22;;;4.82;;
27925;SDS011;15267;47.838;12.128;2023-06-14T04:57:30;6.78;;;4.90;;
27925;SDS011;15267;47.838;12.128;2023-06-14T04:59:57;9.05;;;4.70;;
27925;SDS011;15267;47.838;12.128;2023-06-14T05:02:25;7.18;;;4.35;;
27925;SDS011;15267;47.838;12.128;2023-06-14T05:04:52;9.35;;;4.85;;
27925;SDS011;15267;47.838;12.128;2023-06-14T05:07:19;8.68;;;4.85;;
27925;SDS011;15267;47.838;12.128;2023-06-14T05:09:45;6.78;;;4.72;;
27925;SDS011;15267;47.838;12.128;2023-06-14T05:12:11;7.22;;;5.13;;
27925;SDS011;15267;47.838;12.128;2023-06-14T05:14:37;9.90;;;4.68;;
27925;SDS011;15267;47.838;12.128;2023-06-14T05:17:04;9.00;;;4.80;;
27925;SDS011;15267;47.838;12.128;2023-06-14T05:19:30;8.77;;;4.60;;
27925;SDS011;15267;47.838;12.128;2023-06-14T05:21:56;9.20;;;4.95;;
27925;SDS011;15267;47.838;12.128;2023-06-14T05:24:22;11.02;;;5.05;;
27925;SDS011;15267;47.838;12.128;2023-06-14T05:26:48;7.53;;;4.53;;
27925;SDS011;15267;47.838;12.128;2023-06-14T05:29:14;9.32;;;4.78;;
27925;SDS011;15267;47.838;12.128;2023-06-14T05:31:40;6.25;;;4.75;;
27925;SDS011;15267;47.838;12.128;2023-06-14T05:34:06;11.75;;;6.20;;
27925;SDS011;15267;47.838;12.128;2023-06-14T05:36:32;7.07;;;5.13;;
27925;SDS011;15267;47.838;12.128;2023-06-14T05:38:58;6.28;;;5.10;;
27925;SDS011;15267;47.838;12.128;2023-06-14T05:41:25;8.55;;;5.13;;
27925;SDS011;15267;47.838;12.128;2023-06-14T05:43:51;7.57;;;5.13;;
27925;SDS011;15267;47.838;12.128;2023-06-14T05:46:17;6.18;;;4.57;;
27925;SDS011;15267;47.838;12.128;2023-06-14T05:48:47;10.55;;;4.90;;
27925;SDS011;15267;47.838;12.128;2023-06-14T05:51:13;5.45;;;4.47;;
27925;SDS011;15267;47.838;12.128;2023-06-14T05:53:39;8.02;;;4.90;;
27925;SDS011;15267;47.838;12.128;2023-06-14T05:56:05;7.80;;;4.82;;
27925;SDS011;15267;47.838;12.128;2023-06-14T05:58:31;7.13;;;4.55;;
27925;SDS011;15267;47.838;12.128;2023-06-14T06:00:57;8.88;;;4.95;;
27925;SDS011;15267;47.838;12.128;2023-06-14T06:03:23;7.43;;;4.70;;
27925;SDS011;15267;47.838;12.128;2023-06-14T06:05:49;6.45;;;5.03;;
27925;SDS011;15267;47.838;12.128;2023-06-14T06:08:15;6.88;;;4.50;;
27925;SDS011;15267;47.838;12.128;2023-06-14T06:10:41;9.95;;;4.85;;
27925;SDS011;15267;47.838;12.128;2023-06-14T06:13:08;8.93;;;4.82;;
27925;SDS011;15267;47.838;12.128;2023-06-14T06:15:35;9.05;;;4.53;;
27925;SDS011;15267;47.838;12.128;2023-06-14T06:18:01;5.55;;;4.13;;
27925;SDS011;15267;47.838;12.128;2023-06-14T06:20:27;7.35;;;4.25;;
27925;SDS011;15267;47.838;12.128;2023-06-14T06:22:55;7.13;;;4.10;;
27925;SDS011;15267;47.838;12.128;2023-06-14T06:25:21;5.53;;;4.18;;
27925;SDS011;15267;47.838;12.128;2023-06-14T06:27:47;5.60;;;4.03;;
27925;SDS011;15267;47.838;12.128;2023-06-14T06:30:13;8.02;;;4.38;;
27925;SDS011;15267;47.838;12.128;2023-06-14T06:32:39;9.50;;;4.72;;
27925;SDS011;15267;47.838;12.128;2023-06-14T06:35:05;5.68;;;4.20;;
27925;SDS011;15267;47.838;12.128;2023-06-14T06:37:33;6.45;;;4.43;;
27925;SDS011;15267;47.838;12.128;2023-06-14T06:39:59;6.97;;;4.35;;
27925;SDS011;15267;47.838;12.128;2023-06-14T06:42:25;7.82;;;4.43;;
27925;SDS011;15267;47.838;12.128;2023-06-14T06:44:51;7.78;;;4.30;;
27925;SDS011;15267;47.838;12.128;2023-06-14T06:47:18;8.00;;;4.20;;
27925;SDS011;15267;47.838;12.128;2023-06-14T06:49:43;8.20;;;4.32;;
27925;SDS011;15267;47.838;12.128;2023-06-14T06:52:10;9.88;;;4.70;;
27925;SDS011;15267;47.838;12.128;2023-06-14T06:54:36;9.70;;;4.40;;
27925;SDS011;15267;47.838;12.128;2023-06-14T06:57:02;7.22;;;4.38;;
27925;SDS011;15267;47.838;12.128;2023-06-14T06:59:28;7.78;;;4.35;;
27925;SDS011;15267;47.838;12.128;2023-06-14T07:01:54;7.50;;;4.20;;
27925;SDS011;15267;47.838;12.128;2023-06-14T07:04:20;9.18;;;4.28;;
27925;SDS011;15267;47.838;12.128;2023-06-14T07:06:46;11.93;;;4.60;;
27925;SDS011;15267;47.838;12.128;2023-06-14T07:09:12;13.23;;;4.38;;
27925;SDS011;15267;47.838;12.128;2023-06-14T07:11:40;9.52;;;4.68;;
27925;SDS011;15267;47.838;12.128;2023-06-14T07:14:06;10.00;;;4.28;;
27925;SDS011;15267;47.838;12.128;2023-06-14T07:16:32;9.48;;;4.60;;
27925;SDS011;15267;47.838;12.128;2023-06-14T07:18:58;10.98;;;4.45;;
27925;SDS011;15267;47.838;12.128;2023-06-14T07:21:25;7.40;;;4.05;;
27925;SDS011;15267;47.838;12.128;2023-06-14T07:23:51;8.57;;;4.28;;
27925;SDS011;15267;47.838;12.128;2023-06-14T07:26:17;11.80;;;5.18;;
27925;SDS011;15267;47.838;12.128;2023-06-14T07:28:43;8.35;;;4.05;;
27925;SDS011;15267;47.838;12.128;2023-06-14T07:31:12;8.07;;;4.25;;
27925;SDS011;15267;47.838;12.128;2023-06-14T07:33:39;7.68;;;3.92;;
27925;SDS011;15267;47.838;12.128;2023-06-14T07:36:05;10.20;;;4.00;;
27925;SDS011;15267;47.838;12.128;2023-06-14T07:38:31;5.45;;;3.58;;
27925;SDS011;15267;47.838;12.128;2023-06-14T07:40:57;9.70;;;4.47;;
27925;SDS011;15267;47.838;12.128;2023-06-14T07:43:23;6.60;;;4.13;;
27925;SDS011;15267;47.838;12.128;2023-06-14T07:45:49;9.00;;;3.80;;
27925;SDS011;15267;47.838;12.128;2023-06-14T07:48:15;7.72;;;3.90;;
27925;SDS011;15267;47.838;12.128;2023-06-14T07:50:41;8.27;;;3.80;;
27925;SDS011;15267;47.838;12.128;2023-06-14T07:53:08;9.02;;;4.63;;
27925;SDS011;15267;47.838;12.128;2023-06-14T07:55:34;5.78;;;3.67;;
27925;SDS011;15267;47.838;12.128;2023-06-14T07:58:02;5.85;;;4.00;;
27925;SDS011;15267;47.838;12.128;2023-06-14T08:00:28;8.32;;;3.83;;
27925;SDS011;15267;47.838;12.128;2023-06-14T08:02:54;6.93;;;3.75;;
27925;SDS011;15267;47.838;12.128;2023-06-14T08:05:23;10.85;;;3.92;;
27925;SDS011;15267;47.838;12.128;2023-06-14T08:07:50;8.20;;;4.10;;
27925;SDS011;15267;47.838;12.128;2023-06-14T08:10:16;5.97;;;4.00;;
27925;SDS011;15267;47.838;12.128;2023-06-14T08:12:42;10.30;;;3.85;;
27925;SDS011;15267;47.838;12.128;2023-06-14T08:15:08;8.70;;;4.22;;
27925;SDS011;15267;47.838;12.128;2023-06-14T08:17:34;4.97;;;3.72;;
27925;SDS011;15267;47.838;12.128;2023-06-14T08:20:01;5.75;;;3.80;;
27925;SDS011;15267;47.838;12.128;2023-06-14T08:22:28;5.75;;;3.25;;
27925;SDS011;15267;47.838;12.128;2023-06-14T08:24:57;6.15;;;3.45;;
27925;SDS011;15267;47.838;12.128;2023-06-14T08:27:23;5.75;;;3.72;;
27925;SDS011;15267;47.838;12.128;2023-06-14T08:29:49;7.30;;;3.10;;
27925;SDS011;15267;47.838;12.128;2023-06-14T08:32:15;6.25;;;3.55;;
27925;SDS011;15267;47.838;12.128;2023-06-14T08:34:41;5.65;;;3.55;;
27925;SDS011;15267;47.838;12.128;2023-06-14T08:37:07;4.70;;;2.92;;
27925;SDS011;15267;47.838;12.128;2023-06-14T08:39:33;6.20;;;3.10;;
27925;SDS011;15267;47.838;12.128;2023-06-14T08:41:59;8.88;;;3.45;;
27925;SDS011;15267;47.838;12.128;2023-06-14T08:44:27;8.30;;;3.20;;
27925;SDS011;15267;47.838;12.128;2023-06-14T08:46:54;9.45;;;3.58;;
27925;SDS011;15267;47.838;12.128;2023-06-14T08:49:22;4.97;;;3.00;;
27925;SDS011;15267;47.838;12.128;2023-06-14T08:51:49;7.95;;;2.78;;
27925;SDS011;15267;47.838;12.128;2023-06-14T08:54:16;4.35;;;2.72;;
27925;SDS011;15267;47.838;12.128;2023-06-14T08:56:45;4.65;;;2.90;;
27925;SDS011;15267;47.838;12.128;2023-06-14T08:59:13;5.68;;;3.00;;
27925;SDS011;15267;47.838;12.128;2023-06-14T09:01:40;6.15;;;2.83;;
27925;SDS011;15267;47.838;12.128;2023-06-14T09:04:06;6.00;;;2.90;;
27925;SDS011;15267;47.838;12.128;2023-06-14T09:06:32;4.80;;;2.60;;
27925;SDS011;15267;47.838;12.128;2023-06-14T09:08:58;6.88;;;2.80;;
27925;SDS011;15267;47.838;12.128;2023-06-14T09:11:24;6.13;;;2.83;;
27925;SDS011;15267;47.838;12.128;2023-06-14T09:13:51;5.13;;;2.67;;
27925;SDS011;15267;47.838;12.128;2023-06-14T09:16:17;10.25;;;2.92;;
27925;SDS011;15267;47.838;12.128;2023-06-14T09:18:44;3.40;;;2.90;;
27925;SDS011;15267;47.838;12.128;2023-06-14T09:21:13;4.18;;;2.72;;
27925;SDS011;15267;47.838;12.128;2023-06-14T09:23:39;7.35;;;2.80;;
27925;SDS011;15267;47.838;12.128;2023-06-14T09:26:09;3.53;;;2.50;;
27925;SDS011;15267;47.838;12.128;2023-06-14T09:28:36;8.18;;;2.65;;
27925;SDS011;15267;47.838;12.128;2023-06-14T09:31:02;4.00;;;2.63;;
27925;SDS011;15267;47.838;12.128;2023-06-14T09:33:28;4.78;;;2.85;;
27925;SDS011;15267;47.838;12.128;2023-06-14T09:35:54;6.05;;;2.80;;
27925;SDS011;15267;47.838;12.128;2023-06-14T09:38:20;6.25;;;2.70;;
27925;SDS011;15267;47.838;12.128;2023-06-14T09:40:46;7.40;;;2.70;;
27925;SDS011;15267;47.838;12.128;2023-06-14T09:43:12;2.95;;;2.63;;
27925;SDS011;15267;47.838;12.128;2023-06-14T09:45:38;7.40;;;2.80;;
27925;SDS011;15267;47.838;12.128;2023-06-14T09:48:05;6.05;;;2.72;;
27925;SDS011;15267;47.838;12.128;2023-06-14T09:50:32;4.85;;;2.88;;
27925;SDS011;15267;47.838;12.128;2023-06-14T09:53:06;7.00;;;2.90;;
27925;SDS011;15267;47.838;12.128;2023-06-14T09:55:34;5.30;;;2.90;;
27925;SDS011;15267;47.838;12.128;2023-06-14T09:58:00;4.80;;;3.05;;
27925;SDS011;15267;47.838;12.128;2023-06-14T10:00:28;6.10;;;2.50;;
27925;SDS011;15267;47.838;12.128;2023-06-14T10:02:58;5.45;;;2.75;;
27925;SDS011;15267;47.838;12.128;2023-06-14T10:05:26;4.80;;;2.97;;
27925;SDS011;15267;47.838;12.128;2023-06-14T10:07:56;6.20;;;2.85;;
27925;SDS011;15267;47.838;12.128;2023-06-14T10:10:24;4.63;;;2.75;;
27925;SDS011;15267;47.838;12.128;2023-06-14T10:12:50;8.15;;;3.08;;
27925;SDS011;15267;47.838;12.128;2023-06-14T10:15:18;4.57;;;2.63;;
27925;SDS011;15267;47.838;12.128;2023-06-14T10:17:50;5.05;;;2.70;;
27925;SDS011;15267;47.838;12.128;2023-06-14T10:22:57;4.10;;;2.67;;
27925;SDS011;15267;47.838;12.128;2023-06-14T10:25:31;3.90;;;2.67;;
27925;SDS011;15267;47.838;12.128;2023-06-14T10:30:29;4.72;;;2.70;;
27925;SDS011;15267;47.838;12.128;2023-06-14T10:33:13;4.43;;;2.45;;
27925;SDS011;15267;47.838;12.128;2023-06-14T10:35:40;3.88;;;2.60;;
27925;SDS011;15267;47.838;12.128;2023-06-14T10:38:08;5.05;;;2.60;;
27925;SDS011;15267;47.838;12.128;2023-06-14T10:40:34;5.80;;;2.50;;
27925;SDS011;15267;47.838;12.128;2023-06-14T10:43:11;5.65;;;2.53;;
27925;SDS011;15267;47.838;12.128;2023-06-14T10:48:31;4.60;;;2.53;;
27925;SDS011;15267;47.838;12.128;2023-06-14T10:51:00;6.47;;;3.05;;
27925;SDS011;15267;47.838;12.128;2023-06-14T10:53:27;4.43;;;2.78;;
27925;SDS011;15267;47.838;12.128;2023-06-14T10:55:53;4.18;;;2.65;;
27925;SDS011;15267;47.838;12.128;2023-06-14T10:58:22;5.28;;;3.00;;
27925;SDS011;15267;47.838;12.128;2023-06-14T11:00:48;4.63;;;2.90;;
27925;SDS011;15267;47.838;12.128;2023-06-14T11:03:31;7.43;;;2.90;;
27925;SDS011;15267;47.838;12.128;2023-06-14T11:06:06;4.97;;;2.78;;
27925;SDS011;15267;47.838;12.128;2023-06-14T11:11:21;3.75;;;2.80;;
27925;SDS011;15267;47.838;12.128;2023-06-14T11:13:48;4.68;;;3.08;;
27925;SDS011;15267;47.838;12.128;2023-06-14T11:16:15;7.50;;;2.72;;
27925;SDS011;15267;47.838;12.128;2023-06-14T11:18:41;4.90;;;2.60;;
27925;SDS011;15267;47.838;12.128;2023-06-14T11:21:08;7.20;;;2.90;;
27925;SDS011;15267;47.838;12.128;2023-06-14T11:23:34;3.20;;;2.83;;
27925;SDS011;15267;47.838;12.128;2023-06-14T11:26:00;4.82;;;2.92;;
27925;SDS011;15267;47.838;12.128;2023-06-14T11:28:36;4.70;;;2.70;;
27925;SDS011;15267;47.838;12.128;2023-06-14T11:31:03;7.10;;;3.15;;
27925;SDS011;15267;47.838;12.128;2023-06-14T11:33:29;4.05;;;2.70;;
27925;SDS011;15267;47.838;12.128;2023-06-14T11:35:55;6.20;;;3.00;;
27925;SDS011;15267;47.838;12.128;2023-06-14T11:38:21;5.72;;;3.40;;
27925;SDS011;15267;47.838;12.128;2023-06-14T11:40:47;6.70;;;2.78;;
27925;SDS011;15267;47.838;12.128;2023-06-14T11:43:13;4.25;;;2.60;;
27925;SDS011;15267;47.838;12.128;2023-06-14T11:45:39;4.78;;;2.85;;
27925;SDS011;15267;47.838;12.128;2023-06-14T11:48:06;5.13;;;3.00;;
27925;SDS011;15267;47.838;12.128;2023-06-14T11:50:32;4.93;;;2.53;;
27925;SDS011;15267;47.838;12.128;2023-06-14T11:53:01;3.30;;;2.65;;
27925;SDS011;15267;47.838;12.128;2023-06-14T11:55:38;5.10;;;2.70;;
27925;SDS011;15267;47.838;12.128;2023-06-14T11:58:05;5.28;;;2.85;;
27925;SDS011;15267;47.838;12.128;2023-06-14T12:00:31;4.15;;;2.72;;
27925;SDS011;15267;47.838;12.128;2023-06-14T12:02:57;6.80;;;3.13;;
27925;SDS011;15267;47.838;12.128;2023-06-14T12:05:24;3.78;;;2.60;;
27925;SDS011;15267;47.838;12.128;2023-06-14T12:07:57;7.32;;;2.75;;
27925;SDS011;15267;47.838;12.128;2023-06-14T12:12:50;5.53;;;2.70;;
27925;SDS011;15267;47.838;12.128;2023-06-14T12:15:16;3.78;;;2.70;;
27925;SDS011;15267;47.838;12.128;2023-06-14T12:17:43;8.07;;;2.90;;
27925;SDS011;15267;47.838;12.128;2023-06-14T12:20:09;5.45;;;2.80;;
27925;SDS011;15267;47.838;12.128;2023-06-14T12:25:26;4.53;;;2.38;;
27925;SDS011;15267;47.838;12.128;2023-06-14T12:27:53;5.13;;;2.60;;
27925;SDS011;15267;47.838;12.128;2023-06-14T12:30:20;6.18;;;3.00;;
27925;SDS011;15267;47.838;12.128;2023-06-14T12:32:45;3.53;;;2.80;;
27925;SDS011;15267;47.838;12.128;2023-06-14T12:35:11;5.00;;;2.55;;
27925;SDS011;15267;47.838;12.128;2023-06-14T12:37:37;3.92;;;2.75;;
27925;SDS011;15267;47.838;12.128;2023-06-14T12:40:04;4.13;;;2.72;;
27925;SDS011;15267;47.838;12.128;2023-06-14T12:42:30;4.30;;;2.85;;
27925;SDS011;15267;47.838;12.128;2023-06-14T12:44:57;10.82;;;2.92;;
27925;SDS011;15267;47.838;12.128;2023-06-14T12:47:23;4.15;;;2.50;;
27925;SDS011;15267;47.838;12.128;2023-06-14T12:49:49;10.63;;;2.80;;
27925;SDS011;15267;47.838;12.128;2023-06-14T12:52:15;7.97;;;2.75;;
27925;SDS011;15267;47.838;12.128;2023-06-14T12:54:41;6.10;;;2.47;;
27925;SDS011;15267;47.838;12.128;2023-06-14T12:57:07;6.40;;;2.95;;
27925;SDS011;15267;47.838;12.128;2023-06-14T12:59:33;6.78;;;2.80;;
27925;SDS011;15267;47.838;12.128;2023-06-14T13:02:00;4.43;;;2.88;;
27925;SDS011;15267;47.838;12.128;2023-06-14T13:04:35;4.68;;;2.60;;
27925;SDS011;15267;47.838;12.128;2023-06-14T13:07:02;5.53;;;2.42;;
27925;SDS011;15267;47.838;12.128;2023-06-14T13:09:28;4.93;;;2.78;;
27925;SDS011;15267;47.838;12.128;2023-06-14T13:11:54;4.88;;;2.70;;
27925;SDS011;15267;47.838;12.128;2023-06-14T13:14:20;4.10;;;2.90;;
27925;SDS011;15267;47.838;12.128;2023-06-14T13:16:46;5.35;;;2.90;;
27925;SDS011;15267;47.838;12.128;2023-06-14T13:19:12;5.97;;;2.65;;
27925;SDS011;15267;47.838;12.128;2023-06-14T13:21:37;7.15;;;3.08;;
27925;SDS011;15267;47.838;12.128;2023-06-14T13:24:03;4.15;;;2.72;;
27925;SDS011;15267;47.838;12.128;2023-06-14T13:26:30;9.23;;;3.08;;
27925;SDS011;15267;47.838;12.128;2023-06-14T13:28:55;6.43;;;2.47;;
27925;SDS011;15267;47.838;12.128;2023-06-14T13:31:22;4.97;;;2.65;;
27925;SDS011;15267;47.838;12.128;2023-06-14T13:33:47;5.07;;;2.58;;
27925;SDS011;15267;47.838;12.128;2023-06-14T13:36:13;6.82;;;2.60;;
27925;SDS011;15267;47.838;12.128;2023-06-14T13:38:40;7.55;;;2.83;;
27925;SDS011;15267;47.838;12.128;2023-06-14T13:41:05;5.93;;;2.90;;
27925;SDS011;15267;47.838;12.128;2023-06-14T13:43:31;3.40;;;2.67;;
27925;SDS011;15267;47.838;12.128;2023-06-14T13:45:57;5.75;;;2.60;;
27925;SDS011;15267;47.838;12.128;2023-06-14T13:48:23;5.10;;;2.80;;
27925;SDS011;15267;47.838;12.128;2023-06-14T13:50:49;3.95;;;2.60;;
27925;SDS011;15267;47.838;12.128;2023-06-14T13:53:15;5.95;;;2.90;;
27925;SDS011;15267;47.838;12.128;2023-06-14T13:55:41;5.80;;;2.78;;
27925;SDS011;15267;47.838;12.128;2023-06-14T13:58:07;3.72;;;2.47;;
27925;SDS011;15267;47.838;12.128;2023-06-14T14:00:33;9.63;;;2.50;;
27925;SDS011;15267;47.838;12.128;2023-06-14T14:03:01;7.07;;;2.90;;
27925;SDS011;15267;47.838;12.128;2023-06-14T14:05:28;7.38;;;2.80;;
27925;SDS011;15267;47.838;12.128;2023-06-14T14:07:54;9.07;;;2.78;;
27925;SDS011;15267;47.838;12.128;2023-06-14T14:10:22;5.22;;;2.70;;
27925;SDS011;15267;47.838;12.128;2023-06-14T14:12:48;5.20;;;2.35;;
27925;SDS011;15267;47.838;12.128;2023-06-14T14:15:15;9.48;;;2.85;;
27925;SDS011;15267;47.838;12.128;2023-06-14T14:17:41;5.20;;;2.63;;
27925;SDS011;15267;47.838;12.128;2023-06-14T14:20:08;7.03;;;2.60;;
27925;SDS011;15267;47.838;12.128;2023-06-14T14:22:34;6.03;;;2.78;;
27925;SDS011;15267;47.838;12.128;2023-06-14T14:25:00;8.00;;;2.60;;
27925;SDS011;15267;47.838;12.128;2023-06-14T14:27:26;8.18;;;2.40;;
27925;SDS011;15267;47.838;12.128;2023-06-14T14:29:52;7.20;;;2.88;;
27925;SDS011;15267;47.838;12.128;2023-06-14T14:32:18;4.03;;;2.40;;
27925;SDS011;15267;47.838;12.128;2023-06-14T14:34:43;4.50;;;2.60;;
27925;SDS011;15267;47.838;12.128;2023-06-14T14:37:10;3.95;;;2.80;;
27925;SDS011;15267;47.838;12.128;2023-06-14T14:39:36;6.38;;;2.70;;
27925;SDS011;15267;47.838;12.128;2023-06-14T14:42:02;4.13;;;2.60;;
27925;SDS011;15267;47.838;12.128;2023-06-14T14:44:28;4.10;;;2.55;;
27925;SDS011;15267;47.838;12.128;2023-06-14T14:46:54;2.97;;;2.30;;
27925;SDS011;15267;47.838;12.128;2023-06-14T14:49:20;3.85;;;2.50;;
27925;SDS011;15267;47.838;12.128;2023-06-14T14:51:46;5.78;;;2.50;;
27925;SDS011;15267;47.838;12.128;2023-06-14T14:54:12;6.57;;;2.50;;